Time;durP1;ratioP1;P1;durP2;ratioP2;P2;SDS_P1;SDS_P2;PMS_P1;PMS_P2;Temp;Humidity;BMP_temperature;BMP_pressure;BME280_temperature;BME280_humidity;BME280_pressure;Samples;Min_cycle;Max_cycle;Signal;HPM_P1;HPM_P2
2021/05/29 00:00:45;;;;;;;2.47;1.37;;;11.30;99.90;;;;;;5070107;28;20216;-77
2021/05/29 00:03:11;;;;;;;2.23;1.40;;;11.20;99.90;;;;;;5070545;28;20173;-77
2021/05/29 00:05:37;;;;;;;1.70;1.60;;;11.20;99.90;;;;;;5070435;28;20177;-77
2021/05/29 00:08:03;;;;;;;1.93;1.30;;;11.20;99.90;;;;;;5070565;28;20184;-77
2021/05/29 00:10:28;;;;;;;2.70;1.60;;;11.10;99.90;;;;;;5071896;28;20205;-77
2021/05/29 00:12:54;;;;;;;2.50;1.60;;;11.10;99.90;;;;;;5073905;28;20201;-77
2021/05/29 00:15:20;;;;;;;1.97;1.50;;;11.10;99.90;;;;;;5074142;28;20197;-77
2021/05/29 00:17:46;;;;;;;2.30;1.60;;;11.10;99.90;;;;;;5073684;28;20730;-77
2021/05/29 00:20:12;;;;;;;2.97;1.97;;;11.10;99.90;;;;;;5057396;28;20189;-76
2021/05/29 00:22:39;;;;;;;2.20;1.63;;;11.00;99.90;;;;;;5073946;28;20182;-76
2021/05/29 00:25:07;;;;;;;2.63;2.00;;;11.00;99.90;;;;;;5074051;28;20238;-77
2021/05/29 00:27:33;;;;;;;3.83;2.40;;;10.90;99.90;;;;;;5040841;28;20178;-76
2021/05/29 00:30:01;;;;;;;2.73;2.37;;;10.90;99.90;;;;;;5056774;28;20205;-76
2021/05/29 00:32:26;;;;;;;2.17;1.90;;;10.80;99.90;;;;;;5057199;28;20205;-76
2021/05/29 00:34:53;;;;;;;2.93;2.13;;;10.80;99.90;;;;;;5040382;28;20182;-76
2021/05/29 00:37:20;;;;;;;2.87;2.10;;;10.80;99.90;;;;;;5057256;28;20180;-76
2021/05/29 00:39:46;;;;;;;3.07;2.03;;;10.80;99.90;;;;;;5056718;28;20193;-76
2021/05/29 00:42:11;;;;;;;4.10;2.23;;;10.70;99.90;;;;;;5057458;28;20178;-76
2021/05/29 00:44:47;;;;;;;2.13;1.77;;;10.60;99.90;;;;;;5040210;28;20182;-76
2021/05/29 00:47:13;;;;;;;3.27;1.97;;;10.60;99.90;;;;;;5056773;28;20184;-76
2021/05/29 00:49:39;;;;;;;2.63;1.87;;;10.50;99.90;;;;;;5040534;28;20181;-77
2021/05/29 00:52:05;;;;;;;3.10;1.90;;;10.50;99.90;;;;;;5056728;28;20181;-76
2021/05/29 00:54:32;;;;;;;3.13;2.27;;;10.50;99.90;;;;;;5056854;28;20538;-77
2021/05/29 00:56:58;;;;;;;2.33;1.87;;;10.50;99.90;;;;;;5056909;28;20223;-77
2021/05/29 00:59:25;;;;;;;3.80;1.83;;;10.50;99.90;;;;;;5056454;28;20184;-76
2021/05/29 01:01:51;;;;;;;2.60;1.80;;;10.40;99.90;;;;;;5039733;28;20198;-76
2021/05/29 01:04:17;;;;;;;2.50;1.63;;;10.40;99.90;;;;;;5039879;28;20188;-77
2021/05/29 01:06:42;;;;;;;2.57;1.80;;;10.40;99.90;;;;;;5056455;28;20178;-76
2021/05/29 01:09:08;;;;;;;2.13;1.47;;;10.40;99.90;;;;;;5055956;28;20178;-77
2021/05/29 01:11:35;;;;;;;2.27;1.50;;;10.40;99.90;;;;;;5039370;28;20202;-76
2021/05/29 01:14:02;;;;;;;2.33;1.47;;;10.30;99.90;;;;;;5039852;28;20247;-76
2021/05/29 01:19:04;;;;;;;2.07;1.47;;;10.30;99.90;;;;;;5072937;28;20183;-76
2021/05/29 01:21:32;;;;;;;3.37;1.73;;;10.20;99.90;;;;;;5054819;28;20193;-76
2021/05/29 01:24:00;;;;;;;2.10;1.50;;;10.20;99.90;;;;;;5072435;28;20192;-77
2021/05/29 01:26:26;;;;;;;4.00;1.80;;;10.20;99.90;;;;;;5072908;28;20181;-77
2021/05/29 01:28:56;;;;;;;2.33;1.60;;;10.20;99.90;;;;;;5039245;28;20199;-77
2021/05/29 01:31:26;;;;;;;1.90;1.20;;;10.10;99.90;;;;;;5056656;28;20657;-76
2021/05/29 01:33:56;;;;;;;2.83;1.43;;;10.10;99.90;;;;;;5056401;28;20207;-76
2021/05/29 01:36:23;;;;;;;1.33;1.20;;;10.10;99.90;;;;;;5072782;28;20369;-76
2021/05/29 01:38:48;;;;;;;2.00;1.80;;;10.10;99.90;;;;;;5055532;28;20200;-76
2021/05/29 01:41:15;;;;;;;1.63;1.37;;;10.10;99.90;;;;;;5055842;28;20591;-76
2021/05/29 01:43:43;;;;;;;2.00;1.60;;;10.10;99.90;;;;;;5089150;28;20188;-76
2021/05/29 01:46:11;;;;;;;2.57;1.50;;;10.00;99.90;;;;;;5056462;28;20185;-76
2021/05/29 01:48:44;;;;;;;2.30;1.63;;;10.00;99.90;;;;;;5055543;28;20188;-76
2021/05/29 01:51:11;;;;;;;2.03;1.50;;;9.90;99.90;;;;;;5072047;28;20695;-76
2021/05/29 01:53:37;;;;;;;1.73;1.40;;;9.90;99.90;;;;;;5071701;28;20270;-76
2021/05/29 01:56:03;;;;;;;4.03;1.33;;;9.80;99.90;;;;;;5039223;28;20184;-76
2021/05/29 01:58:29;;;;;;;3.53;1.80;;;9.80;99.90;;;;;;5055418;28;20538;-77
2021/05/29 02:00:54;;;;;;;1.77;1.33;;;9.80;99.90;;;;;;5055388;28;20200;-77
2021/05/29 02:03:22;;;;;;;3.93;1.50;;;9.80;99.90;;;;;;5055232;28;20196;-77
2021/05/29 02:05:51;;;;;;;1.83;1.37;;;9.70;99.90;;;;;;5039021;28;20211;-77
2021/05/29 02:08:17;;;;;;;1.60;1.37;;;9.70;99.90;;;;;;5055635;28;20330;-77
2021/05/29 02:10:45;;;;;;;1.73;1.20;;;9.70;99.90;;;;;;5071700;28;20234;-76
2021/05/29 02:13:12;;;;;;;1.93;1.40;;;9.70;99.90;;;;;;5055154;28;20209;-77
2021/05/29 02:15:41;;;;;;;5.00;1.70;;;9.70;99.90;;;;;;5055263;28;20180;-77
2021/05/29 02:18:09;;;;;;;3.53;2.10;;;9.60;99.90;;;;;;5088549;28;20185;-77
2021/05/29 02:20:49;;;;;;;3.17;1.70;;;9.60;99.90;;;;;;5056036;28;20197;-77
2021/05/29 02:23:19;;;;;;;2.23;1.50;;;9.50;99.90;;;;;;5054739;28;20752;-77
2021/05/29 02:25:48;;;;;;;2.60;1.80;;;9.50;99.90;;;;;;5038446;28;20188;-77
2021/05/29 02:28:14;;;;;;;1.93;1.57;;;9.50;99.90;;;;;;5055133;28;20185;-77
2021/05/29 02:30:41;;;;;;;2.33;1.63;;;9.50;99.90;;;;;;5054587;28;20696;-77
2021/05/29 02:33:07;;;;;;;1.70;1.30;;;9.50;99.90;;;;;;5071103;28;20202;-77
2021/05/29 02:35:35;;;;;;;2.83;1.67;;;9.50;99.90;;;;;;5038240;28;20518;-77
2021/05/29 02:38:02;;;;;;;3.27;1.70;;;9.50;99.90;;;;;;5054627;28;20184;-77
2021/05/29 02:40:28;;;;;;;3.40;1.83;;;9.50;99.90;;;;;;5070707;28;20230;-77
2021/05/29 02:42:54;;;;;;;3.90;2.07;;;9.40;99.90;;;;;;5037973;28;20180;-76
2021/05/29 02:45:20;;;;;;;5.23;2.40;;;9.40;99.90;;;;;;5071223;28;20239;-76
2021/05/29 02:47:47;;;;;;;3.00;2.07;;;9.40;99.90;;;;;;5054469;28;20190;-76
2021/05/29 02:50:14;;;;;;;3.10;2.00;;;9.40;99.90;;;;;;5054177;28;20198;-76
2021/05/29 02:52:40;;;;;;;2.53;1.80;;;9.30;99.90;;;;;;5054268;28;20606;-77
2021/05/29 02:55:06;;;;;;;4.30;2.00;;;9.30;99.90;;;;;;5038159;28;20214;-77
2021/05/29 02:57:32;;;;;;;3.27;1.90;;;9.30;99.90;;;;;;5054320;28;20189;-77
2021/05/29 02:59:57;;;;;;;6.77;2.07;;;9.20;99.90;;;;;;5070532;28;20598;-76
2021/05/29 03:02:24;;;;;;;5.77;2.17;;;9.20;99.90;;;;;;5054078;28;20174;-76
2021/05/29 03:04:52;;;;;;;3.23;2.30;;;9.20;99.90;;;;;;5054353;28;20258;-77
2021/05/29 03:07:18;;;;;;;3.90;2.37;;;9.20;99.90;;;;;;5054524;28;20579;-77
2021/05/29 03:09:44;;;;;;;4.63;2.57;;;9.20;99.90;;;;;;5037166;28;20676;-77
2021/05/29 03:12:12;;;;;;;3.20;2.20;;;9.20;99.90;;;;;;5054382;28;20265;-77
2021/05/29 03:14:37;;;;;;;4.63;2.47;;;9.20;99.90;;;;;;5054365;28;20641;-76
2021/05/29 03:17:03;;;;;;;4.80;2.13;;;9.20;99.90;;;;;;5054266;28;20220;-77
2021/05/29 03:19:30;;;;;;;6.20;2.30;;;9.20;99.90;;;;;;5053894;28;20179;-76
2021/05/29 03:21:56;;;;;;;3.67;2.33;;;9.20;99.90;;;;;;5054152;28;20203;-77
2021/05/29 03:24:21;;;;;;;3.40;2.33;;;9.10;99.90;;;;;;5054126;28;20186;-76
2021/05/29 03:26:47;;;;;;;5.63;2.77;;;9.10;99.90;;;;;;5054688;28;20303;-77
2021/05/29 03:29:12;;;;;;;4.47;2.57;;;9.10;99.90;;;;;;5037167;28;20185;-76
2021/05/29 03:31:40;;;;;;;3.53;2.10;;;9.10;99.90;;;;;;5072062;28;20249;-76
2021/05/29 03:34:06;;;;;;;4.23;2.63;;;9.10;99.90;;;;;;5037327;28;20214;-76
2021/05/29 03:36:33;;;;;;;6.03;2.60;;;9.10;99.90;;;;;;5053955;28;20513;-77
2021/05/29 03:38:58;;;;;;;4.97;2.83;;;9.10;99.90;;;;;;5053621;28;20196;-76
2021/05/29 03:41:24;;;;;;;4.80;2.77;;;9.00;99.90;;;;;;5053678;28;20200;-76
2021/05/29 03:43:51;;;;;;;4.90;2.70;;;9.00;99.90;;;;;;5054002;28;20554;-77
2021/05/29 03:46:20;;;;;;;6.80;3.07;;;9.10;99.90;;;;;;5073524;28;20204;-76
2021/05/29 03:48:46;;;;;;;5.80;2.40;;;9.00;99.90;;;;;;5041417;28;20187;-76
2021/05/29 03:51:12;;;;;;;5.70;2.83;;;9.10;99.90;;;;;;5074333;28;20570;-77
2021/05/29 03:53:38;;;;;;;6.00;2.70;;;9.10;99.90;;;;;;5074242;28;20204;-77
2021/05/29 03:56:06;;;;;;;5.53;2.60;;;9.10;99.90;;;;;;5074413;28;20654;-77
2021/05/29 03:58:32;;;;;;;6.03;3.07;;;9.10;99.90;;;;;;5057837;28;20191;-77
2021/05/29 04:00:58;;;;;;;5.60;3.07;;;9.10;99.90;;;;;;5058058;28;20197;-77
2021/05/29 04:03:24;;;;;;;6.43;3.07;;;9.10;99.90;;;;;;5057621;28;20183;-76
2021/05/29 04:05:50;;;;;;;4.30;2.60;;;9.10;99.90;;;;;;5057461;28;20181;-77
2021/05/29 04:08:16;;;;;;;4.73;2.73;;;9.10;99.90;;;;;;5073944;28;20215;-76
2021/05/29 04:10:43;;;;;;;6.00;2.80;;;9.10;99.90;;;;;;5040514;28;20741;-77
2021/05/29 04:13:09;;;;;;;6.23;2.60;;;9.20;99.90;;;;;;5041586;28;20215;-76
2021/05/29 04:15:34;;;;;;;7.23;3.00;;;9.20;99.90;;;;;;5057736;28;20263;-77
2021/05/29 04:18:00;;;;;;;5.40;3.27;;;9.20;99.90;;;;;;5057341;28;20241;-77
2021/05/29 04:20:28;;;;;;;5.27;2.93;;;9.20;99.90;;;;;;5073729;28;20706;-76
2021/05/29 04:22:56;;;;;;;6.60;3.17;;;9.30;99.90;;;;;;5057637;28;20182;-76
2021/05/29 04:25:24;;;;;;;9.97;3.30;;;9.30;99.90;;;;;;5074017;28;20460;-77
2021/05/29 04:27:50;;;;;;;7.43;3.53;;;9.30;99.90;;;;;;5040772;28;20185;-76
2021/05/29 04:30:18;;;;;;;5.83;3.30;;;9.40;99.90;;;;;;5074812;28;20574;-76
2021/05/29 04:32:44;;;;;;;6.63;3.30;;;9.40;99.90;;;;;;5057084;28;20212;-76
2021/05/29 04:35:11;;;;;;;7.87;3.20;;;9.50;99.90;;;;;;5040616;28;20175;-77
2021/05/29 04:37:38;;;;;;;6.47;3.20;;;9.60;99.90;;;;;;5040846;28;20188;-77
2021/05/29 04:40:08;;;;;;;7.03;4.07;;;9.60;99.90;;;;;;5056829;28;20292;-76
2021/05/29 04:42:34;;;;;;;6.10;3.40;;;9.70;99.90;;;;;;5057211;28;20176;-77
2021/05/29 04:45:01;;;;;;;7.67;4.20;;;9.80;99.90;;;;;;5073655;28;20688;-77
2021/05/29 04:47:28;;;;;;;9.43;3.90;;;9.90;99.90;;;;;;5040104;28;20280;-77
2021/05/29 04:49:56;;;;;;;8.83;4.33;;;10.00;99.90;;;;;;5040439;28;20256;-76
2021/05/29 04:52:22;;;;;;;7.83;3.97;;;10.10;99.90;;;;;;5040470;28;20182;-77
2021/05/29 04:54:48;;;;;;;6.50;4.07;;;10.10;99.90;;;;;;5056702;28;20651;-76
2021/05/29 04:57:15;;;;;;;9.40;4.50;;;10.20;99.90;;;;;;5056279;28;20204;-77
2021/05/29 04:59:41;;;;;;;7.30;4.27;;;10.30;99.90;;;;;;5056656;28;20179;-77
2021/05/29 05:02:07;;;;;;;6.77;3.80;;;10.30;99.90;;;;;;5056667;28;20238;-76
2021/05/29 05:04:35;;;;;;;8.57;4.63;;;10.40;99.90;;;;;;5056669;28;20224;-76
2021/05/29 05:07:02;;;;;;;7.90;4.00;;;10.50;99.90;;;;;;5056544;28;20231;-77
2021/05/29 05:09:29;;;;;;;7.70;4.60;;;10.50;99.90;;;;;;5072849;28;20184;-76
2021/05/29 05:11:57;;;;;;;7.40;4.00;;;10.60;99.90;;;;;;5056124;28;20699;-76
2021/05/29 05:14:25;;;;;;;7.33;3.97;;;10.70;99.90;;;;;;5056472;28;20766;-76
2021/05/29 05:16:51;;;;;;;7.43;4.23;;;10.70;99.90;;;;;;5057120;28;20184;-77
2021/05/29 05:19:18;;;;;;;9.30;5.03;;;10.90;99.90;;;;;;5072687;28;20180;-77
2021/05/29 05:21:45;;;;;;;8.40;4.50;;;11.00;99.90;;;;;;5055913;28;20645;-76
2021/05/29 05:24:12;;;;;;;8.97;4.20;;;11.10;99.90;;;;;;5039914;28;20423;-76
2021/05/29 05:26:38;;;;;;;8.83;4.23;;;11.10;99.90;;;;;;5056371;28;20194;-76
2021/05/29 05:29:04;;;;;;;9.80;4.13;;;11.20;99.90;;;;;;5056083;28;20185;-76
2021/05/29 05:31:35;;;;;;;8.23;4.37;;;11.30;99.90;;;;;;5056374;28;20197;-76
2021/05/29 05:34:07;;;;;;;8.17;4.33;;;11.50;99.90;;;;;;5072757;28;20338;-76
2021/05/29 05:36:35;;;;;;;8.43;4.17;;;11.60;99.90;;;;;;5040867;28;20301;-76
2021/05/29 05:39:02;;;;;;;8.33;4.30;;;11.80;99.90;;;;;;5072075;28;20185;-76
2021/05/29 05:41:29;;;;;;;7.73;4.23;;;12.30;99.90;;;;;;5072472;28;20792;-76
2021/05/29 05:43:55;;;;;;;8.33;4.03;;;13.00;99.90;;;;;;5055907;28;20181;-76
2021/05/29 05:46:23;;;;;;;7.90;3.90;;;13.60;99.90;;;;;;5055804;28;20550;-76
2021/05/29 05:48:50;;;;;;;8.03;4.30;;;13.90;99.90;;;;;;5039150;28;20189;-76
2021/05/29 05:51:15;;;;;;;6.33;3.70;;;14.10;99.90;;;;;;5055637;28;20205;-77
2021/05/29 05:53:41;;;;;;;6.30;3.97;;;14.40;99.90;;;;;;5038877;28;20560;-76
2021/05/29 05:56:07;;;;;;;6.77;3.87;;;14.60;99.90;;;;;;5055777;28;20178;-76
2021/05/29 05:58:34;;;;;;;6.33;3.67;;;14.90;99.90;;;;;;5056119;28;20197;-76
2021/05/29 06:01:00;;;;;;;5.63;3.40;;;15.00;99.90;;;;;;5071868;28;20272;-76
2021/05/29 06:03:27;;;;;;;8.17;3.80;;;15.10;99.90;;;;;;5055804;28;20629;-76
2021/05/29 06:05:54;;;;;;;6.33;3.43;;;15.50;99.90;;;;;;5037877;28;20254;-76
2021/05/29 06:08:20;;;;;;;6.53;3.53;;;16.30;99.90;;;;;;5039052;28;20204;-77
2021/05/29 06:10:49;;;;;;;6.90;3.13;;;16.60;99.90;;;;;;5055714;28;20224;-76
2021/05/29 06:13:27;;;;;;;6.70;3.80;;;17.10;99.90;;;;;;5039588;28;20255;-77
2021/05/29 06:21:22;;;;;;;4.27;2.90;;;18.00;99.90;;;;;;5072299;28;20577;-77
2021/05/29 06:23:48;;;;;;;5.27;2.67;;;17.90;99.90;;;;;;5055104;28;20177;-77
2021/05/29 06:26:14;;;;;;;6.40;3.20;;;17.60;99.90;;;;;;5055698;28;20185;-77
2021/05/29 06:28:40;;;;;;;3.60;2.50;;;17.40;99.90;;;;;;5066118;28;20276;-77
2021/05/29 06:31:05;;;;;;;4.13;2.80;;;17.20;99.90;;;;;;5067563;28;20670;-77
2021/05/29 06:33:31;;;;;;;3.57;2.40;;;16.90;99.90;;;;;;5079999;28;20218;-80
2021/05/29 06:35:58;;;;;;;6.23;2.63;;;16.50;99.90;;;;;;5048012;28;20211;-78
2021/05/29 06:38:24;;;;;;;4.53;2.53;;;16.00;99.90;;;;;;5086282;28;20181;-79
2021/05/29 06:40:50;;;;;;;4.13;2.67;;;15.40;99.90;;;;;;5084633;28;20200;-79
2021/05/29 06:43:16;;;;;;;4.07;2.73;;;14.80;99.90;;;;;;5079541;28;20185;-79
2021/05/29 06:45:42;;;;;;;3.10;2.30;;;14.30;99.90;;;;;;5070236;28;20191;-78
2021/05/29 06:48:11;;;;;;;5.60;2.57;;;13.90;99.90;;;;;;5089424;28;20173;-80
2021/05/29 06:50:37;;;;;;;4.60;2.80;;;13.60;99.90;;;;;;5070087;28;20622;-78
2021/05/29 06:53:07;;;;;;;5.97;3.30;;;13.40;99.90;;;;;;5064223;28;20213;-78
2021/05/29 07:01:01;;;;;;;5.23;2.63;;;13.00;99.90;;;;;;5072148;28;20189;-77
2021/05/29 07:03:26;;;;;;;5.03;2.80;;;12.90;99.90;;;;;;5076701;28;20183;-77
2021/05/29 07:05:52;;;;;;;5.67;2.73;;;12.80;99.90;;;;;;5058130;28;20318;-77
2021/05/29 07:08:17;;;;;;;4.67;2.83;;;12.80;99.90;;;;;;5092931;28;20219;-76
2021/05/29 07:10:43;;;;;;;3.63;2.43;;;12.80;99.90;;;;;;5047076;28;20208;-77
2021/05/29 07:13:09;;;;;;;4.80;2.90;;;12.80;99.90;;;;;;5067699;28;20200;-76
2021/05/29 07:15:38;;;;;;;4.23;2.67;;;12.80;99.90;;;;;;5071977;28;20326;-78
2021/05/29 07:18:09;;;;;;;3.90;2.50;;;12.80;99.90;;;;;;5052252;28;20383;-78
2021/05/29 07:20:35;;;;;;;3.53;2.40;;;12.90;99.90;;;;;;5082124;28;20192;-77
2021/05/29 07:23:00;;;;;;;4.30;2.53;;;12.80;99.90;;;;;;5064307;28;20272;-78
2021/05/29 07:25:26;;;;;;;4.37;2.80;;;12.90;99.90;;;;;;5080558;28;20642;-77
2021/05/29 07:27:52;;;;;;;4.10;2.77;;;12.90;99.90;;;;;;5059342;28;20261;-78
2021/05/29 07:30:19;;;;;;;4.67;2.80;;;13.10;99.90;;;;;;5052486;28;20193;-77
2021/05/29 07:32:44;;;;;;;3.43;2.47;;;13.20;99.90;;;;;;5077794;28;20201;-85
2021/05/29 07:35:10;;;;;;;4.23;2.43;;;13.10;99.90;;;;;;5073282;28;20169;-83
2021/05/29 07:37:37;;;;;;;5.07;2.93;;;13.10;99.90;;;;;;5061370;28;20188;-79
2021/05/29 07:40:05;;;;;;;4.77;3.27;;;13.00;99.90;;;;;;5060275;28;20218;-77
2021/05/29 07:42:31;;;;;;;5.70;2.83;;;12.90;99.90;;;;;;5112660;28;20184;-78
2021/05/29 07:44:57;;;;;;;3.50;2.40;;;13.00;99.90;;;;;;5081929;28;20176;-79
2021/05/29 07:47:25;;;;;;;3.90;2.63;;;12.90;99.90;;;;;;5098033;28;20642;-78
2021/05/29 07:49:50;;;;;;;4.80;2.50;;;12.90;99.90;;;;;;5099321;28;20169;-77
2021/05/29 07:52:16;;;;;;;4.23;2.50;;;13.00;99.90;;;;;;5097262;28;20164;-78
2021/05/29 07:54:42;;;;;;;4.23;2.83;;;13.10;99.90;;;;;;5075870;28;20212;-78
2021/05/29 07:57:09;;;;;;;2.93;2.10;;;13.10;99.90;;;;;;5098305;28;20188;-77
2021/05/29 07:59:35;;;;;;;4.67;2.30;;;13.00;99.90;;;;;;5087370;28;20257;-79
2021/05/29 08:02:01;;;;;;;4.40;2.37;;;12.90;99.90;;;;;;5040620;28;20205;-77
2021/05/29 08:04:26;;;;;;;5.20;2.23;;;12.90;99.90;;;;;;5092899;28;20567;-79
2021/05/29 08:06:52;;;;;;;3.70;2.27;;;12.90;99.90;;;;;;5078299;28;20191;-77
2021/05/29 08:09:18;;;;;;;5.57;2.57;;;13.00;99.90;;;;;;5094883;28;20221;-77
2021/05/29 08:11:44;;;;;;;3.50;2.60;;;13.00;99.90;;;;;;5078522;28;20196;-77
2021/05/29 08:14:11;;;;;;;5.57;2.67;;;13.00;99.90;;;;;;5095009;28;20208;-77
2021/05/29 08:16:37;;;;;;;4.87;2.93;;;13.10;99.90;;;;;;5095298;28;20362;-77
2021/05/29 08:19:03;;;;;;;6.40;2.60;;;13.20;99.90;;;;;;5077660;28;20716;-77
2021/05/29 08:21:29;;;;;;;3.47;2.33;;;13.10;99.90;;;;;;5094431;28;20311;-77
2021/05/29 08:23:55;;;;;;;4.80;2.47;;;13.10;99.90;;;;;;5079100;28;20318;-77
2021/05/29 08:26:23;;;;;;;4.00;2.60;;;13.10;99.90;;;;;;5082628;28;20189;-77
2021/05/29 08:28:50;;;;;;;3.60;2.50;;;13.10;99.90;;;;;;5079716;28;20172;-77
2021/05/29 08:31:16;;;;;;;4.33;2.33;;;13.20;99.90;;;;;;5069221;28;20197;-77
2021/05/29 08:33:42;;;;;;;6.30;2.50;;;13.20;99.90;;;;;;5058270;28;20212;-77
2021/05/29 08:36:08;;;;;;;4.13;2.60;;;13.20;99.90;;;;;;5079042;28;20364;-79
2021/05/29 08:38:34;;;;;;;4.23;2.47;;;13.30;99.90;;;;;;5080128;28;20187;-78
2021/05/29 08:40:59;;;;;;;4.80;2.97;;;13.30;99.90;;;;;;5086787;28;20189;-79
2021/05/29 08:43:26;;;;;;;4.63;2.13;;;13.30;99.90;;;;;;5078757;28;20172;-76
2021/05/29 08:45:53;;;;;;;4.20;2.40;;;13.30;99.90;;;;;;5052168;28;20181;-78
2021/05/29 08:48:19;;;;;;;3.87;2.13;;;13.20;99.90;;;;;;5060671;28;20219;-77
2021/05/29 08:53:28;;;;;;;5.10;2.37;;;13.30;99.90;;;;;;5060835;28;20209;-77
2021/05/29 08:55:54;;;;;;;3.60;2.50;;;13.30;99.90;;;;;;5059191;28;20177;-76
2021/05/29 08:58:19;;;;;;;2.60;2.00;;;13.40;99.90;;;;;;5057498;28;20648;-76
2021/05/29 09:00:45;;;;;;;3.70;2.40;;;13.40;99.90;;;;;;5058769;28;20354;-78
2021/05/29 09:03:11;;;;;;;5.30;2.83;;;13.50;99.90;;;;;;5078447;28;20188;-79
2021/05/29 09:05:48;;;;;;;3.77;2.43;;;13.50;99.90;;;;;;5096147;28;20173;-80
2021/05/29 09:08:14;;;;;;;5.23;2.60;;;13.40;99.90;;;;;;5093458;28;20173;-80
2021/05/29 09:10:46;;;;;;;5.60;2.43;;;13.40;99.90;;;;;;5055010;28;20212;-76
2021/05/29 09:13:13;;;;;;;4.37;2.60;;;13.30;99.90;;;;;;5078027;28;20638;-78
2021/05/29 09:15:40;;;;;;;3.30;2.50;;;13.40;99.90;;;;;;5078437;28;20197;-77
2021/05/29 09:18:06;;;;;;;3.83;2.23;;;13.40;99.90;;;;;;5075518;28;20186;-78
2021/05/29 09:20:32;;;;;;;5.50;2.70;;;13.40;99.90;;;;;;5060255;28;20193;-78
2021/05/29 09:23:00;;;;;;;4.10;2.63;;;13.40;99.90;;;;;;5042554;28;20184;-77
2021/05/29 09:25:26;;;;;;;4.20;2.50;;;13.40;99.90;;;;;;5059083;28;20330;-77
2021/05/29 09:28:06;;;;;;;2.93;2.27;;;13.50;99.90;;;;;;5042274;28;20197;-77
2021/05/29 09:30:49;;;;;;;4.37;2.83;;;13.40;99.90;;;;;;5041823;28;20233;-77
2021/05/29 09:33:22;;;;;;;6.10;3.00;;;13.40;99.90;;;;;;5074412;28;20201;-77
2021/05/29 09:36:03;;;;;;;4.70;2.43;;;13.40;99.90;;;;;;5075439;28;20606;-77
2021/05/29 09:38:54;;;;;;;2.67;2.40;;;13.30;99.90;;;;;;5060309;28;20272;-78
2021/05/29 09:41:32;;;;;;;5.67;2.77;;;13.30;99.90;;;;;;5060885;28;20196;-78
2021/05/29 09:44:04;;;;;;;7.03;3.30;;;13.40;99.90;;;;;;5045759;28;20184;-78
2021/05/29 09:46:30;;;;;;;6.80;3.07;;;13.50;99.90;;;;;;5079527;28;20184;-77
2021/05/29 09:49:00;;;;;;;6.00;3.03;;;13.50;99.90;;;;;;5079004;28;20245;-77
2021/05/29 09:51:27;;;;;;;5.47;2.80;;;13.50;99.90;;;;;;5042982;28;20209;-77
2021/05/29 09:53:54;;;;;;;3.93;2.40;;;13.50;99.90;;;;;;5059820;28;20690;-77
2021/05/29 09:56:34;;;;;;;5.10;3.23;;;13.50;99.90;;;;;;5058284;28;20197;-77
2021/05/29 09:59:09;;;;;;;6.80;2.77;;;13.50;99.90;;;;;;5056621;28;20264;-77
2021/05/29 10:01:51;;;;;;;4.43;2.70;;;13.50;99.90;;;;;;5040207;28;20223;-77
2021/05/29 10:04:39;;;;;;;8.90;3.67;;;13.60;99.90;;;;;;5056777;28;20174;-77
2021/05/29 10:07:13;;;;;;;5.73;2.93;;;13.60;99.90;;;;;;5073327;28;20173;-77
2021/05/29 10:09:42;;;;;;;4.97;3.13;;;13.70;99.90;;;;;;5040557;28;20177;-77
2021/05/29 10:12:08;;;;;;;7.10;3.30;;;13.70;99.90;;;;;;5040085;28;20213;-77
2021/05/29 10:14:34;;;;;;;4.17;2.73;;;13.70;99.90;;;;;;5039968;28;20225;-77
2021/05/29 10:17:09;;;;;;;6.40;2.57;;;13.90;99.90;;;;;;5056684;28;20169;-77
2021/05/29 10:19:36;;;;;;;4.47;2.60;;;14.00;99.90;;;;;;5041074;28;20197;-77
2021/05/29 10:22:08;;;;;;;4.70;2.90;;;14.00;99.90;;;;;;5038949;28;20198;-77
2021/05/29 10:24:35;;;;;;;3.97;2.27;;;14.00;99.90;;;;;;5071780;28;20203;-77
2021/05/29 10:27:10;;;;;;;5.90;2.93;;;14.00;99.90;;;;;;5055072;28;20182;-77
2021/05/29 10:29:36;;;;;;;4.97;2.80;;;14.00;99.90;;;;;;5039265;28;20180;-77
2021/05/29 10:32:12;;;;;;;3.63;2.30;;;14.10;99.90;;;;;;5054940;28;20674;-77
2021/05/29 10:34:56;;;;;;;3.63;2.50;;;14.20;99.90;;;;;;5055193;28;20211;-77
2021/05/29 10:37:31;;;;;;;3.90;2.57;;;14.30;99.90;;;;;;5071498;28;20322;-77
2021/05/29 10:40:19;;;;;;;5.13;2.93;;;14.60;99.90;;;;;;5071050;28;20200;-77
2021/05/29 10:42:47;;;;;;;3.37;2.50;;;14.80;99.90;;;;;;5071242;28;20236;-77
2021/05/29 10:45:15;;;;;;;3.70;2.10;;;15.00;99.90;;;;;;5038399;28;20173;-77
2021/05/29 10:48:12;;;;;;;4.50;2.70;;;15.10;99.90;;;;;;5071336;28;20521;-77
2021/05/29 10:50:44;;;;;;;3.33;2.30;;;15.30;99.90;;;;;;5070781;28;20200;-77
2021/05/29 10:53:10;;;;;;;3.77;2.50;;;15.40;99.90;;;;;;5072294;28;20213;-77
2021/05/29 10:55:36;;;;;;;3.60;2.27;;;15.30;99.90;;;;;;5037846;28;20209;-77
2021/05/29 10:58:03;;;;;;;4.43;2.53;;;15.30;99.90;;;;;;5037835;28;20209;-77
2021/05/29 11:00:35;;;;;;;6.13;2.50;;;15.20;99.90;;;;;;5054139;28;20821;-78
2021/05/29 11:03:15;;;;;;;6.47;2.73;;;15.20;99.90;;;;;;5072277;28;20173;-76
2021/05/29 11:05:42;;;;;;;5.00;2.70;;;15.30;99.90;;;;;;5070981;28;20173;-76
2021/05/29 11:08:46;;;;;;;4.47;2.87;;;15.40;99.90;;;;;;5037974;28;20268;-76
2021/05/29 11:11:30;;;;;;;3.47;2.33;;;15.30;99.90;;;;;;5070905;28;20193;-77
2021/05/29 11:14:09;;;;;;;5.63;2.80;;;15.60;99.90;;;;;;5072090;28;20254;-77
2021/05/29 11:16:53;;;;;;;5.33;2.83;;;15.60;99.90;;;;;;5056177;28;20208;-76
2021/05/29 11:19:22;;;;;;;4.77;2.70;;;15.50;99.90;;;;;;5071511;28;20184;-76
2021/05/29 11:22:04;;;;;;;4.70;2.73;;;15.60;99.90;;;;;;5071654;28;20211;-76
2021/05/29 11:24:31;;;;;;;4.13;2.57;;;15.50;99.90;;;;;;5063667;28;20184;-77
2021/05/29 11:26:57;;;;;;;4.07;2.43;;;15.40;99.90;;;;;;5056245;28;20542;-76
2021/05/29 11:29:22;;;;;;;4.57;2.77;;;15.70;99.90;;;;;;5038499;28;20265;-76
2021/05/29 11:31:49;;;;;;;4.03;2.33;;;15.80;99.90;;;;;;5055153;28;20224;-76
2021/05/29 11:34:15;;;;;;;4.10;2.90;;;15.80;99.90;;;;;;5039341;28;20197;-77
2021/05/29 11:36:42;;;;;;;4.27;2.47;;;15.70;99.90;;;;;;5038801;28;20643;-77
2021/05/29 11:39:08;;;;;;;5.57;2.80;;;15.80;99.90;;;;;;5071507;28;20185;-76
2021/05/29 11:41:34;;;;;;;4.40;2.70;;;15.90;99.90;;;;;;5039244;28;20197;-76
2021/05/29 11:44:00;;;;;;;4.83;2.33;;;16.00;99.90;;;;;;5071504;28;20173;-76
2021/05/29 11:46:26;;;;;;;4.43;2.80;;;16.00;99.90;;;;;;5071482;28;20414;-76
2021/05/29 11:49:06;;;;;;;5.33;2.80;;;16.10;99.90;;;;;;5060549;28;20181;-78
2021/05/29 11:51:35;;;;;;;4.23;2.77;;;16.30;99.90;;;;;;5047284;28;20258;-80
2021/05/29 11:54:08;;;;;;;4.03;2.80;;;16.30;99.90;;;;;;5068656;28;20203;-78
2021/05/29 11:56:36;;;;;;;4.87;2.40;;;16.40;99.90;;;;;;5089604;28;20173;-76
2021/05/29 11:59:05;;;;;;;3.30;2.60;;;16.60;99.90;;;;;;5072493;28;20228;-79
2021/05/29 12:01:34;;;;;;;5.50;2.60;;;16.60;99.90;;;;;;5069091;28;20277;-78
2021/05/29 12:04:02;;;;;;;3.60;2.30;;;16.50;99.90;;;;;;5070068;28;20681;-78
2021/05/29 12:06:40;;;;;;;3.77;2.50;;;16.60;99.90;;;;;;5048650;28;20663;-78
2021/05/29 12:09:16;;;;;;;5.07;2.90;;;16.80;99.90;;;;;;5078619;28;20177;-77
2021/05/29 12:11:53;;;;;;;3.13;2.00;;;16.70;99.90;;;;;;5084060;28;20297;-78
2021/05/29 12:14:23;;;;;;;3.67;2.17;;;16.70;99.90;;;;;;5068435;28;20197;-77
2021/05/29 12:16:56;;;;;;;4.23;2.80;;;16.60;99.90;;;;;;5084102;28;20222;-77
2021/05/29 12:19:36;;;;;;;5.30;2.43;;;16.50;99.90;;;;;;5083344;28;20664;-77
2021/05/29 12:22:12;;;;;;;4.90;2.73;;;16.50;99.90;;;;;;5081273;28;20193;-77
2021/05/29 12:24:45;;;;;;;3.20;2.37;;;16.70;99.90;;;;;;5079501;28;20188;-77
2021/05/29 12:27:22;;;;;;;4.73;2.87;;;16.80;99.90;;;;;;5062768;28;20182;-77
2021/05/29 12:29:49;;;;;;;5.47;2.80;;;16.90;99.90;;;;;;5065154;28;20181;-77
2021/05/29 12:32:34;;;;;;;3.23;2.40;;;17.00;99.90;;;;;;5080210;28;20188;-78
2021/05/29 12:35:03;;;;;;;4.97;2.73;;;17.10;99.90;;;;;;5075387;28;20189;-82
2021/05/29 12:37:30;;;;;;;5.30;2.73;;;17.10;99.90;;;;;;5059423;28;20549;-77
2021/05/29 12:40:01;;;;;;;4.70;2.23;;;16.80;99.90;;;;;;5056296;28;20235;-77
2021/05/29 12:42:31;;;;;;;5.23;2.73;;;16.60;99.90;;;;;;5056495;28;20544;-77
2021/05/29 12:45:00;;;;;;;4.63;2.53;;;16.60;99.90;;;;;;5074006;28;20180;-77
2021/05/29 12:47:29;;;;;;;3.13;2.47;;;16.70;99.90;;;;;;5056007;28;20194;-77
2021/05/29 12:49:55;;;;;;;4.77;3.07;;;16.80;99.90;;;;;;5038499;28;20199;-79
2021/05/29 12:52:27;;;;;;;3.90;2.50;;;17.00;99.90;;;;;;5067611;28;20650;-77
2021/05/29 12:54:53;;;;;;;3.77;2.57;;;16.90;99.90;;;;;;5090224;28;20205;-78
2021/05/29 12:57:19;;;;;;;3.87;2.67;;;16.90;99.90;;;;;;5077387;28;20229;-77
2021/05/29 12:59:45;;;;;;;4.80;2.97;;;16.80;99.90;;;;;;5076314;28;20169;-76
2021/05/29 13:07:33;;;;;;;4.40;2.73;;;16.50;99.90;;;;;;5060731;28;20216;-78
2021/05/29 13:10:21;;;;;;;5.03;3.00;;;16.60;99.90;;;;;;5077895;28;20220;-77
2021/05/29 13:13:00;;;;;;;3.87;2.77;;;16.60;99.90;;;;;;5080978;28;20248;-79
2021/05/29 13:15:27;;;;;;;6.37;2.63;;;16.80;99.90;;;;;;5096468;28;20173;-77